createdAt,value
2023-04-09T00:04:17.082Z,102470.88
2023-04-09T00:09:18.489Z,102471.00
2023-04-09T00:14:19.920Z,102469.75
2023-04-09T00:19:21.575Z,102466.34
2023-04-09T00:24:22.991Z,102467.34
2023-04-09T00:29:24.431Z,102460.97
2023-04-09T00:34:26.190Z,102454.09
2023-04-09T00:39:27.973Z,102449.13
2023-04-09T00:44:29.494Z,102449.13
2023-04-09T00:49:30.994Z,102444.69
2023-04-09T00:54:32.884Z,102447.19
2023-04-09T00:59:34.423Z,102441.13
2023-04-09T01:04:36.754Z,102440.25
2023-04-09T01:09:43.730Z,102441.06
2023-04-09T01:14:51.500Z,102435.69
2023-04-09T01:20:10.402Z,102429.72
2023-04-09T01:25:33.026Z,102432.47
2023-04-09T01:30:36.132Z,102439.22
2023-04-09T01:35:37.807Z,102441.97
2023-04-09T01:40:39.499Z,102423.75
2023-04-09T01:45:42.748Z,102434.00
2023-04-09T01:50:44.547Z,102433.03
2023-04-09T01:55:46.041Z,102432.00
2023-04-09T02:00:49.232Z,102424.25
2023-04-09T02:06:15.592Z,102434.44
2023-04-09T02:11:17.712Z,102425.81
2023-04-09T02:16:20.646Z,102421.38
2023-04-09T02:21:23.630Z,102414.69
2023-04-09T02:26:25.382Z,102418.22
2023-04-09T02:31:27.192Z,102413.88
2023-04-09T02:36:28.729Z,102415.56
2023-04-09T02:41:30.197Z,102406.97
2023-04-09T02:46:31.599Z,102410.25
2023-04-09T02:51:36.017Z,102400.34
2023-04-09T02:56:37.588Z,102395.34
2023-04-09T03:01:39.109Z,102388.41
2023-04-09T03:06:40.750Z,102393.56
2023-04-09T03:11:42.134Z,102385.91
2023-04-09T03:16:43.632Z,102389.88
2023-04-09T03:21:46.263Z,102384.19
2023-04-09T03:26:47.668Z,102382.44
2023-04-09T03:31:49.126Z,102379.78
2023-04-09T03:36:50.530Z,102370.13
2023-04-09T03:41:52.022Z,102369.41
2023-04-09T03:46:53.548Z,102364.31
2023-04-09T03:51:54.965Z,102367.34
2023-04-09T03:56:57.171Z,102368.06
2023-04-09T04:01:58.651Z,102363.16
2023-04-09T04:07:00.088Z,102364.84
2023-04-09T04:12:02.115Z,102367.13
2023-04-09T04:17:03.634Z,102367.13
2023-04-09T04:22:05.181Z,102360.84
2023-04-09T04:27:06.884Z,102366.00
2023-04-09T04:32:08.245Z,102366.00
2023-04-09T04:37:09.606Z,102376.16
2023-04-09T04:42:11.008Z,102370.19
2023-04-09T04:47:12.412Z,102377.03
2023-04-09T04:52:15.536Z,102374.16
2023-04-09T04:57:18.077Z,102374.03
2023-04-09T05:02:19.746Z,102368.06
2023-04-09T05:07:21.271Z,102364.69
2023-04-09T05:12:22.638Z,102366.31
2023-04-09T05:17:24.686Z,102372.06
2023-04-09T05:22:26.346Z,102374.47
2023-04-09T05:27:28.402Z,102380.34
2023-04-09T05:32:29.859Z,102369.13
2023-04-09T05:37:31.696Z,102376.28
2023-04-09T05:42:33.127Z,102377.09
2023-04-09T05:47:34.574Z,102377.41
2023-04-09T05:52:35.965Z,102385.38
2023-04-09T05:57:37.497Z,102382.56
2023-04-09T06:02:39.020Z,102385.44
2023-04-09T06:07:40.864Z,102384.81
2023-04-09T06:12:42.248Z,102370.00
2023-04-09T06:17:43.693Z,102380.06
2023-04-09T06:22:45.345Z,102376.16
2023-04-09T06:27:46.820Z,102382.63
2023-04-09T06:32:54.653Z,102381.41
2023-04-09T06:37:56.592Z,102382.84
2023-04-09T06:42:58.096Z,102387.22
2023-04-09T06:48:00.293Z,102385.63
2023-04-09T06:53:02.567Z,102387.16
2023-04-09T06:58:04.044Z,102378.81
2023-04-09T07:03:07.910Z,102379.84
2023-04-09T07:08:09.534Z,102378.53
2023-04-09T07:13:11.171Z,102373.75
2023-04-09T07:18:12.596Z,102378.91
2023-04-09T07:23:14.002Z,102376.66
2023-04-09T07:28:15.469Z,102377.16
2023-04-09T07:33:16.856Z,102370.28
2023-04-09T07:38:18.277Z,102380.63
2023-04-09T07:43:21.403Z,102377.09
2023-04-09T07:48:24.093Z,102376.25
2023-04-09T07:53:25.480Z,102378.97
2023-04-09T07:58:26.928Z,102368.84
2023-04-09T08:03:28.576Z,102369.13
2023-04-09T08:08:30.987Z,102362.34
2023-04-09T08:13:32.514Z,102358.81
2023-04-09T08:18:33.926Z,102357.47
2023-04-09T08:23:35.371Z,102364.97
2023-04-09T08:28:37.323Z,102364.22
2023-04-09T08:33:38.766Z,102369.22
2023-04-09T08:38:40.698Z,102369.53
2023-04-09T08:43:57.160Z,102359.97
2023-04-09T08:48:59.716Z,102369.44
2023-04-09T08:54:04.377Z,102365.19
2023-04-09T08:59:06.555Z,102354.50
2023-04-09T09:04:09.520Z,102355.78
2023-04-09T09:09:15.817Z,102345.59
2023-04-09T09:14:19.398Z,102331.81
2023-04-09T09:19:26.908Z,102329.91
2023-04-09T09:24:28.888Z,102324.13
2023-04-09T09:29:30.477Z,102321.84
2023-04-09T09:34:32.099Z,102325.75
2023-04-09T09:39:44.531Z,102322.97
2023-04-09T09:44:46.254Z,102307.84
2023-04-09T09:49:49.569Z,102309.44
2023-04-09T09:54:52.765Z,102315.47
2023-04-09T09:59:59.190Z,102299.91
2023-04-09T10:05:01.614Z,102299.41
2023-04-09T10:10:05.118Z,102290.72
2023-04-09T10:15:07.418Z,102278.00
2023-04-09T10:20:26.025Z,102266.66
2023-04-09T10:25:28.476Z,102265.94
2023-04-09T10:30:36.829Z,102261.47
2023-04-09T10:35:38.801Z,102264.72
2023-04-09T10:40:42.787Z,102265.69
2023-04-09T10:45:44.397Z,102256.97
2023-04-09T10:50:45.846Z,102241.41
2023-04-09T10:55:52.281Z,102240.03
2023-04-09T11:00:54.036Z,102239.38
2023-04-09T11:06:07.104Z,102237.47
2023-04-09T11:11:08.504Z,102226.84
2023-04-09T11:16:11.930Z,102211.53
2023-04-09T11:21:31.399Z,102197.56
2023-04-09T11:26:36.768Z,102203.56
2023-04-09T11:31:38.234Z,102204.28
2023-04-09T11:36:40.672Z,102195.41
2023-04-09T11:41:42.061Z,102199.63
2023-04-09T11:46:44.630Z,102200.44
2023-04-09T11:51:46.159Z,102191.66
2023-04-09T11:56:55.672Z,102205.78
2023-04-09T12:02:00.716Z,102197.28
2023-04-09T12:07:02.229Z,102195.03
2023-04-09T12:12:08.883Z,102185.91
2023-04-09T12:17:10.550Z,102176.84
2023-04-09T12:22:11.950Z,102195.03
2023-04-09T12:27:13.393Z,102185.63
2023-04-09T12:32:14.957Z,102180.38
2023-04-09T12:37:16.720Z,102173.81
2023-04-09T12:42:18.370Z,102172.00
2023-04-09T12:47:19.816Z,102181.66
2023-04-09T12:52:22.506Z,102173.38
2023-04-09T12:57:24.123Z,102173.03
2023-04-09T13:02:25.863Z,102164.91
2023-04-09T13:07:29.419Z,102173.28
2023-04-09T13:12:30.931Z,102165.53
2023-04-09T13:17:32.543Z,102169.09
2023-04-09T13:22:34.000Z,102166.59
2023-04-09T13:27:35.439Z,102164.84
2023-04-09T13:32:37.088Z,102153.94
2023-04-09T13:37:38.500Z,102148.81
2023-04-09T13:42:40.137Z,102153.78
2023-04-09T13:47:42.893Z,102159.25
2023-04-09T13:52:44.345Z,102157.72
2023-04-09T13:57:45.934Z,102156.06
2023-04-09T14:02:47.329Z,102156.06
2023-04-09T14:07:48.800Z,102146.13
2023-04-09T14:12:50.704Z,102144.75
2023-04-09T14:17:52.214Z,102137.78
2023-04-09T14:22:53.940Z,102113.84
2023-04-09T14:27:55.404Z,102122.38
2023-04-09T14:32:56.925Z,102123.41
2023-04-09T14:37:58.434Z,102112.66
2023-04-09T14:43:00.267Z,102108.25
2023-04-09T14:48:01.789Z,102110.59
2023-04-09T14:53:04.170Z,102109.59
2023-04-09T14:58:07.714Z,102108.84
2023-04-09T15:03:09.246Z,102115.69
2023-04-09T15:08:10.786Z,102104.44
2023-04-09T15:13:12.172Z,102102.75
2023-04-09T15:18:13.548Z,102085.38
2023-04-09T15:23:14.934Z,102079.75
2023-04-09T15:28:16.698Z,102075.44
2023-04-09T15:33:18.143Z,102063.38
2023-04-09T15:38:21.544Z,102044.19
2023-04-09T15:43:23.606Z,102043.22
2023-04-09T15:48:25.072Z,102042.00
2023-04-09T15:53:28.988Z,102050.78
2023-04-09T15:58:30.428Z,102049.16
2023-04-09T16:03:36.867Z,102055.09
2023-04-09T16:08:39.330Z,102044.59
2023-04-09T16:13:40.885Z,102057.50
2023-04-09T16:18:42.365Z,102048.91
2023-04-09T16:23:43.820Z,102047.03
2023-04-09T16:28:45.360Z,102039.28
2023-04-09T16:33:46.850Z,102035.59
2023-04-09T16:38:48.484Z,102032.97
2023-04-09T16:43:51.104Z,102037.47
2023-04-09T16:48:52.837Z,102035.59
2023-04-09T16:53:54.441Z,102033.56
2023-04-09T16:58:55.949Z,102033.47
2023-04-09T17:03:57.736Z,102029.97
2023-04-09T17:08:59.848Z,102041.16
2023-04-09T17:14:01.523Z,102031.63
2023-04-09T17:19:02.980Z,102031.59
2023-04-09T17:24:04.616Z,102028.78
2023-04-09T17:29:06.033Z,102017.47
2023-04-09T17:34:08.605Z,102028.13
2023-04-09T17:39:10.031Z,102016.00
2023-04-09T17:44:11.595Z,102029.31
2023-04-09T17:49:13.044Z,102030.22
2023-04-09T17:54:14.868Z,102029.84
2023-04-09T17:59:16.299Z,102040.72
2023-04-09T18:04:18.001Z,102033.00
2023-04-09T18:09:19.758Z,102031.59
2023-04-09T18:14:21.473Z,102034.72
2023-04-09T18:19:22.873Z,102032.75
2023-04-09T18:24:26.195Z,102033.44
2023-04-09T18:29:29.099Z,102043.19
2023-04-09T18:34:30.830Z,102041.53
2023-04-09T18:39:34.234Z,102044.34
2023-04-09T18:44:38.900Z,102044.72
2023-04-09T18:49:40.451Z,102050.09
2023-04-09T18:54:42.276Z,102045.56
2023-04-09T18:59:45.264Z,102057.06
2023-04-09T19:04:46.854Z,102057.28
2023-04-09T19:09:48.355Z,102060.47
2023-04-09T19:14:49.789Z,102060.84
2023-04-09T19:19:51.162Z,102066.75
2023-04-09T19:24:52.729Z,102067.75
2023-04-09T19:29:54.234Z,102075.41
2023-04-09T19:34:55.815Z,102077.28
2023-04-09T19:39:58.519Z,102068.25
2023-04-09T19:45:00.424Z,102060.25
2023-04-09T19:50:01.958Z,102055.34
2023-04-09T19:55:04.938Z,102057.59
2023-04-09T20:00:08.637Z,102045.59
2023-04-09T20:05:10.473Z,102050.28
2023-04-09T20:10:12.123Z,102056.44
2023-04-09T20:15:13.794Z,102056.44
2023-04-09T20:20:19.693Z,102051.63
2023-04-09T20:25:21.777Z,102046.66
2023-04-09T20:30:23.178Z,102040.38
2023-04-09T20:35:24.620Z,102023.34
2023-04-09T20:40:26.365Z,102011.09
2023-04-09T20:45:27.769Z,102020.63
2023-04-09T20:50:31.076Z,102024.06
2023-04-09T20:55:32.577Z,102033.25
2023-04-09T21:00:34.201Z,102029.25
2023-04-09T21:05:35.708Z,102035.41
2023-04-09T21:10:37.240Z,102024.19
2023-04-09T21:15:38.665Z,102033.78
2023-04-09T21:20:45.417Z,102024.78
2023-04-09T21:25:46.971Z,102016.63
2023-04-09T21:30:48.434Z,102008.59
2023-04-09T21:35:53.366Z,102007.19
2023-04-09T21:40:54.796Z,102007.94
2023-04-09T21:45:57.045Z,102007.34
2023-04-09T21:50:58.632Z,102008.59
2023-04-09T21:56:00.165Z,102015.13
2023-04-09T22:01:02.265Z,102017.09
2023-04-09T22:06:03.874Z,102021.22
2023-04-09T22:11:05.581Z,102025.31
2023-04-09T22:16:08.037Z,102032.31
2023-04-09T22:21:13.925Z,102031.78
2023-04-09T22:26:15.374Z,102013.06
2023-04-09T22:31:16.880Z,102015.72
2023-04-09T22:36:18.669Z,102012.84
2023-04-09T22:41:20.163Z,102009.50
2023-04-09T22:46:22.309Z,102016.97
2023-04-09T22:51:24.601Z,102010.41
2023-04-09T22:56:26.327Z,102004.88
2023-04-09T23:01:28.258Z,102001.50
2023-04-09T23:06:30.912Z,101985.97
2023-04-09T23:11:32.621Z,101991.66
2023-04-09T23:16:34.169Z,101981.47
2023-04-09T23:21:35.830Z,101983.25
2023-04-09T23:26:37.308Z,101975.44
2023-04-09T23:31:38.804Z,101972.84
2023-04-09T23:36:40.482Z,101968.88
2023-04-09T23:41:41.893Z,101958.44
2023-04-09T23:46:43.489Z,101957.91
2023-04-09T23:51:44.890Z,101960.38
2023-04-09T23:56:46.822Z,101962.13
